createdAt,value
2022-07-25T00:01:54.475Z,3.05
2022-07-25T00:04:21.398Z,3.08
2022-07-25T00:06:48.962Z,3.00
2022-07-25T00:09:16.706Z,3.00
2022-07-25T00:11:46.261Z,3.00
2022-07-25T00:14:12.913Z,3.40
2022-07-25T00:16:40.088Z,3.50
2022-07-25T00:19:06.757Z,3.30
2022-07-25T00:21:33.345Z,3.25
2022-07-25T00:23:59.954Z,3.10
2022-07-25T00:26:26.528Z,3.17
2022-07-25T00:28:53.071Z,2.88
2022-07-25T00:31:19.731Z,3.10
2022-07-25T00:33:46.333Z,2.83
2022-07-25T00:36:14.789Z,3.17
2022-07-25T00:38:41.426Z,2.97
2022-07-25T00:41:08.610Z,3.22
2022-07-25T00:43:35.175Z,3.30
2022-07-25T00:46:02.046Z,3.47
2022-07-25T00:48:30.107Z,3.00
2022-07-25T00:50:57.021Z,3.25
2022-07-25T00:53:24.620Z,3.42
2022-07-25T00:55:51.956Z,3.63
2022-07-25T00:58:18.900Z,3.10
2022-07-25T01:00:54.601Z,3.22
2022-07-25T01:03:21.162Z,3.15
2022-07-25T01:05:53.093Z,3.00
2022-07-25T01:08:24.092Z,3.20
2022-07-25T01:10:50.674Z,3.28
2022-07-25T01:13:19.855Z,2.90
2022-07-25T01:15:47.707Z,3.20
2022-07-25T01:18:14.376Z,3.20
2022-07-25T01:20:43.825Z,3.53
2022-07-25T01:23:10.426Z,3.15
2022-07-25T01:25:37.110Z,3.20
2022-07-25T01:28:03.912Z,3.22
2022-07-25T01:30:40.106Z,3.50
2022-07-25T01:33:07.316Z,3.35
2022-07-25T01:35:41.529Z,3.55
2022-07-25T01:38:13.450Z,3.22
2022-07-25T01:40:40.691Z,3.17
2022-07-25T01:43:08.097Z,3.15
2022-07-25T01:45:34.680Z,3.25
2022-07-25T01:48:01.237Z,3.15
2022-07-25T01:50:30.632Z,3.10
2022-07-25T01:52:58.525Z,3.00
2022-07-25T01:55:25.176Z,3.15
2022-07-25T01:57:53.060Z,3.20
2022-07-25T02:00:19.895Z,3.20
2022-07-25T02:03:09.755Z,3.03
2022-07-25T02:05:36.416Z,3.25
2022-07-25T02:08:03.369Z,3.30
2022-07-25T02:10:29.914Z,3.47
2022-07-25T02:12:56.394Z,3.03
2022-07-25T02:15:23.152Z,2.95
2022-07-25T02:17:49.710Z,3.42
2022-07-25T02:20:16.255Z,3.03
2022-07-25T02:22:42.783Z,2.97
2022-07-25T02:25:12.336Z,3.15
2022-07-25T02:27:38.866Z,3.45
2022-07-25T02:30:06.175Z,3.22
2022-07-25T02:32:32.694Z,3.35
2022-07-25T02:34:59.267Z,3.30
2022-07-25T02:37:25.820Z,3.50
2022-07-25T02:39:52.418Z,3.28
2022-07-25T02:42:18.911Z,3.35
2022-07-25T02:44:45.513Z,3.78
2022-07-25T02:47:12.100Z,3.65
2022-07-25T02:49:38.629Z,3.33
2022-07-25T02:52:05.523Z,3.50
2022-07-25T02:54:32.438Z,3.40
2022-07-25T02:56:59.018Z,3.33
2022-07-25T02:59:25.531Z,3.30
2022-07-25T03:01:58.896Z,3.42
2022-07-25T03:04:25.553Z,3.45
2022-07-25T03:06:52.286Z,3.53
2022-07-25T03:09:19.288Z,3.58
2022-07-25T03:11:45.858Z,3.53
2022-07-25T03:14:12.385Z,3.50
2022-07-25T03:16:39.277Z,3.50
2022-07-25T03:19:10.230Z,3.50
2022-07-25T03:21:39.735Z,3.63
2022-07-25T03:24:06.997Z,3.67
2022-07-25T03:26:33.850Z,3.78
2022-07-25T03:29:00.374Z,3.50
2022-07-25T03:31:26.942Z,3.80
2022-07-25T03:33:53.517Z,3.78
2022-07-25T03:36:20.044Z,3.67
2022-07-25T03:38:46.656Z,3.80
2022-07-25T03:41:13.618Z,4.00
2022-07-25T03:43:40.409Z,4.03
2022-07-25T03:46:07.030Z,3.50
2022-07-25T03:48:33.862Z,3.75
2022-07-25T03:51:06.400Z,3.83
2022-07-25T03:53:33.135Z,3.90
2022-07-25T03:55:59.679Z,3.90
2022-07-25T03:58:26.289Z,3.83
2022-07-25T04:00:52.877Z,3.97
2022-07-25T04:03:19.707Z,4.40
2022-07-25T04:05:47.698Z,4.15
2022-07-25T04:08:14.730Z,4.20
2022-07-25T04:10:41.253Z,4.07
2022-07-25T04:13:09.772Z,4.38
2022-07-25T04:15:36.422Z,4.13
2022-07-25T04:18:02.965Z,4.10
2022-07-25T04:20:29.550Z,4.18
2022-07-25T04:22:56.131Z,4.28
2022-07-25T04:25:22.753Z,4.65
2022-07-25T04:27:49.285Z,4.13
2022-07-25T04:30:23.966Z,4.30
2022-07-25T04:32:51.636Z,4.40
2022-07-25T04:35:18.227Z,4.43
2022-07-25T04:37:44.765Z,4.72
2022-07-25T04:40:11.857Z,4.55
2022-07-25T04:42:38.441Z,4.45
2022-07-25T04:45:05.344Z,4.75
2022-07-25T04:47:31.955Z,4.53
2022-07-25T04:49:58.559Z,4.50
2022-07-25T04:52:25.136Z,4.30
2022-07-25T04:54:51.667Z,4.63
2022-07-25T04:57:18.663Z,4.72
2022-07-25T04:59:45.233Z,4.90
2022-07-25T05:02:11.854Z,4.28
2022-07-25T05:04:45.159Z,4.63
2022-07-25T05:07:12.154Z,4.65
2022-07-25T05:09:38.961Z,4.60
2022-07-25T05:12:05.709Z,4.45
2022-07-25T05:14:32.268Z,4.55
2022-07-25T05:16:58.872Z,4.30
2022-07-25T05:19:26.047Z,4.57
2022-07-25T05:21:53.301Z,5.00
2022-07-25T05:24:19.895Z,5.20
2022-07-25T05:26:46.925Z,4.65
2022-07-25T05:29:13.476Z,4.95
2022-07-25T05:31:40.283Z,4.28
2022-07-25T05:34:07.397Z,5.03
2022-07-25T05:36:34.429Z,4.50
2022-07-25T05:39:01.343Z,5.03
2022-07-25T05:41:28.036Z,4.88
2022-07-25T05:43:54.738Z,5.38
2022-07-25T05:46:21.316Z,5.22
2022-07-25T05:48:47.930Z,4.70
2022-07-25T05:51:14.506Z,4.57
2022-07-25T05:53:41.065Z,5.63
2022-07-25T05:56:08.845Z,5.38
2022-07-25T05:58:37.205Z,5.70
2022-07-25T06:01:03.810Z,5.40
2022-07-25T06:03:30.453Z,5.75
2022-07-25T06:05:57.029Z,6.00
2022-07-25T06:08:23.984Z,5.85
2022-07-25T06:10:51.579Z,5.93
2022-07-25T06:13:18.134Z,5.93
2022-07-25T06:15:47.386Z,6.05
2022-07-25T06:18:13.880Z,6.15
2022-07-25T06:20:40.470Z,5.85
2022-07-25T06:23:07.010Z,5.72
2022-07-25T06:25:33.635Z,5.93
2022-07-25T06:28:01.041Z,5.95
2022-07-25T06:30:28.286Z,5.45
2022-07-25T06:32:54.866Z,5.47
2022-07-25T06:35:23.010Z,5.45
2022-07-25T06:37:50.091Z,6.07
2022-07-25T06:40:16.909Z,5.72
2022-07-25T06:42:45.290Z,5.47
2022-07-25T06:45:13.203Z,5.80
2022-07-25T06:47:41.485Z,5.47
2022-07-25T06:50:11.317Z,5.65
2022-07-25T06:52:38.891Z,5.80
2022-07-25T06:55:09.070Z,5.75
2022-07-25T06:57:36.027Z,5.88
2022-07-25T07:00:06.959Z,5.10
2022-07-25T07:02:33.731Z,5.43
2022-07-25T07:05:00.273Z,5.68
2022-07-25T07:07:27.158Z,5.60
2022-07-25T07:09:53.695Z,5.55
2022-07-25T07:12:20.253Z,5.45
2022-07-25T07:14:47.893Z,5.75
2022-07-25T07:17:14.471Z,5.78
2022-07-25T07:19:44.423Z,5.38
2022-07-25T07:22:11.261Z,5.90
2022-07-25T07:24:44.392Z,5.50
2022-07-25T07:27:14.865Z,4.90
2022-07-25T07:29:42.015Z,5.45
2022-07-25T07:32:08.785Z,6.00
2022-07-25T07:34:35.512Z,5.53
2022-07-25T07:37:02.565Z,5.40
2022-07-25T07:39:29.154Z,5.68
2022-07-25T07:41:55.713Z,5.40
2022-07-25T07:44:22.262Z,5.80
2022-07-25T07:46:48.997Z,5.97
2022-07-25T07:49:15.709Z,5.80
2022-07-25T07:51:44.174Z,5.18
2022-07-25T07:54:28.976Z,5.65
2022-07-25T07:56:55.499Z,5.30
2022-07-25T07:59:22.095Z,5.68
2022-07-25T08:01:48.729Z,6.22
2022-07-25T08:04:15.690Z,6.10
2022-07-25T08:06:43.168Z,5.30
2022-07-25T08:09:10.418Z,6.10
2022-07-25T08:11:40.033Z,5.80
2022-07-25T08:14:07.475Z,5.25
2022-07-25T08:16:34.365Z,5.88
2022-07-25T08:19:00.907Z,6.10
2022-07-25T08:21:27.552Z,5.55
2022-07-25T08:23:54.499Z,6.10
2022-07-25T08:26:21.120Z,5.80
2022-07-25T08:28:52.512Z,6.05
2022-07-25T08:31:27.237Z,6.22
2022-07-25T08:33:54.017Z,6.00
